Time;durP1;ratioP1;P1;durP2;ratioP2;P2;SDS_P1;SDS_P2;PMS_P1;PMS_P2;Temp;Humidity;BMP_temperature;BMP_pressure;BME280_temperature;BME280_humidity;BME280_pressure;Samples;Min_cycle;Max_cycle;Signal;HPM_P1;HPM_P2
2021/04/19 00:00:22;;;;;;;;;;;;;;;;;;5093546;28;20270;-76
2021/04/19 00:02:47;;;;;;;;;;;;;;;;;;5094443;28;19919;-76
2021/04/19 00:05:14;;;;;;;;;;;;;;;;;;5097620;28;19916;-76
2021/04/19 00:07:39;;;;;;;;;;;;;;;;;;5097789;28;19984;-76
2021/04/19 00:10:05;;;;;;;;;;;;;;;;;;5091894;28;20315;-76
2021/04/19 00:12:31;;;;;;;;;;;;;;;;;;5077282;28;19962;-76
2021/04/19 00:14:56;;;;;;;;;;;;;;;;;;5095768;28;19943;-76
2021/04/19 00:17:22;;;;;;;;;;;;;;;;;;5096190;28;19919;-76
2021/04/19 00:19:47;;;;;;;;;;;;;;;;;;5097283;28;19916;-76
2021/04/19 00:22:13;;;;;;;;;;;;;;;;;;5097332;28;20409;-76
2021/04/19 00:24:38;;;;;;;;;;;;;;;;;;5097493;28;19918;-76
2021/04/19 00:27:03;;;;;;;;;;;;;;;;;;5097496;28;20274;-76
2021/04/19 00:29:29;;;;;;;;;;;;;;;;;;5097106;28;19912;-76
2021/04/19 00:31:54;;;;;;;;;;;;;;;;;;5097037;28;19916;-76
2021/04/19 00:34:19;;;;;;;;;;;;;;;;;;5097064;28;19919;-76
2021/04/19 00:36:45;;;;;;;;;;;;;;;;;;5097079;28;20280;-76
2021/04/19 00:39:10;;;;;;;;;;;;;;;;;;5096140;28;20433;-76
2021/04/19 00:41:35;;;;;;;;;;;;;;;;;;5097067;28;19970;-76
2021/04/19 00:44:01;;;;;;;;;;;;;;;;;;5097210;28;19919;-76
2021/04/19 00:46:27;;;;;;;;;;;;;;;;;;5096980;28;20006;-76
2021/04/19 00:48:52;;;;;;;;;;;;;;;;;;5096718;28;19912;-76
2021/04/19 00:51:17;;;;;;;;;;;;;;;;;;5096991;28;19908;-76
2021/04/19 00:53:43;;;;;;;;;;;;;;;;;;5096598;28;19911;-76
2021/04/19 00:56:09;;;;;;;;;;;;;;;;;;5095732;28;19998;-76
2021/04/19 00:58:36;;;;;;;;;;;;;;;;;;5096773;28;20269;-76
2021/04/19 01:01:03;;;;;;;;;;;;;;;;;;5096630;28;20301;-76
2021/04/19 01:03:29;;;;;;;;;;;;;;;;;;5094044;28;19912;-76
2021/04/19 01:05:55;;;;;;;;;;;;;;;;;;5096621;28;19912;-76
2021/04/19 01:08:21;;;;;;;;;;;;;;;;;;5095347;28;19973;-76
2021/04/19 01:10:46;;;;;;;;;;;;;;;;;;5096630;28;20041;-77
2021/04/19 01:13:12;;;;;;;;;;;;;;;;;;5095496;28;19915;-76
2021/04/19 01:15:38;;;;;;;;;;;;;;;;;;5095080;28;19919;-76
2021/04/19 01:18:05;;;;;;;;;;;;;;;;;;5096303;28;19943;-77
2021/04/19 01:20:35;;;;;;;;;;;;;;;;;;5095772;28;19963;-76
2021/04/19 01:23:01;;;;;;;;;;;;;;;;;;5095024;28;19918;-76
2021/04/19 01:25:28;;;;;;;;;;;;;;;;;;5096455;28;19916;-76
2021/04/19 01:27:53;;;;;;;;;;;;;;;;;;5095954;28;19951;-76
2021/04/19 01:30:22;;;;;;;;;;;;;;;;;;5096004;28;19908;-77
2021/04/19 01:32:47;;;;;;;;;;;;;;;;;;5095700;28;19928;-76
2021/04/19 01:35:14;;;;;;;;;;;;;;;;;;5096124;28;20382;-76
2021/04/19 01:37:40;;;;;;;;;;;;;;;;;;5095875;28;20311;-76
2021/04/19 01:40:07;;;;;;;;;;;;;;;;;;5083116;28;19970;-76
2021/04/19 01:42:32;;;;;;;;;;;;;;;;;;5075767;28;19913;-76
2021/04/19 01:44:57;;;;;;;;;;;;;;;;;;5075686;28;19981;-76
2021/04/19 01:47:24;;;;;;;;;;;;;;;;;;5075528;28;20003;-76
2021/04/19 01:49:49;;;;;;;;;;;;;;;;;;5074311;28;19912;-76
2021/04/19 01:52:15;;;;;;;;;;;;;;;;;;5075531;28;19912;-76
2021/04/19 01:54:41;;;;;;;;;;;;;;;;;;5074201;28;20290;-76
2021/04/19 01:57:07;;;;;;;;;;;;;;;;;;5074323;28;19916;-76
2021/04/19 01:59:33;;;;;;;;;;;;;;;;;;5073798;28;20042;-76
2021/04/19 02:02:04;;;;;;;;;;;;;;;;;;5092189;28;19912;-76
2021/04/19 02:04:50;;;;;;;;;;;;;;;;;;5095464;28;19964;-76
2021/04/19 02:07:22;;;;;;;;;;;;;;;;;;5091577;28;19919;-76
2021/04/19 02:10:03;;;;;;;;;;;;;;;;;;5093031;28;20014;-76
2021/04/19 02:12:39;;;;;;;;;;;;;;;;;;5093844;28;19919;-76
2021/04/19 02:15:10;;;;;;;;;;;;;;;;;;5095415;28;19916;-76
2021/04/19 02:17:56;;;;;;;;;;;;;;;;;;5093885;28;20289;-76
2021/04/19 02:20:37;;;;;;;;;;;;;;;;;;5093820;28;19969;-76
2021/04/19 02:23:09;;;;;;;;;;;;;;;;;;5094021;28;20010;-76
2021/04/19 02:25:38;;;;;;;;;;;;;;;;;;5093190;28;19995;-76
2021/04/19 02:28:10;;;;;;;;;;;;;;;;;;5095022;28;20353;-76
2021/04/19 02:30:38;;;;;;;;;;;;;;;;;;5094886;28;19998;-76
2021/04/19 02:33:06;;;;;;;;;;;;;;;;;;5094724;28;19916;-76
2021/04/19 02:35:33;;;;;;;;;;;;;;;;;;5076879;28;19964;-76
2021/04/19 02:38:03;;;;;;;;;;;;;;;;;;5094708;28;19912;-76
2021/04/19 02:40:34;;;;;;;;;;;;;;;;;;5093405;28;19959;-76
2021/04/19 02:43:00;;;;;;;;;;;;;;;;;;5093450;28;20002;-76
2021/04/19 02:45:26;;;;;;;;;;;;;;;;;;5094608;28;19973;-76
2021/04/19 02:47:58;;;;;;;;;;;;;;;;;;5093468;28;19994;-76
2021/04/19 02:50:34;;;;;;;;;;;;;;;;;;5093148;28;19916;-76
2021/04/19 02:53:01;;;;;;;;;;;;;;;;;;5094744;28;19951;-77
2021/04/19 02:55:27;;;;;;;;;;;;;;;;;;5094537;28;19916;-76
2021/04/19 02:57:56;;;;;;;;;;;;;;;;;;5094154;28;19912;-76
2021/04/19 03:00:24;;;;;;;;;;;;;;;;;;5093020;28;19915;-76
2021/04/19 03:02:50;;;;;;;;;;;;;;;;;;5094379;28;20011;-76
2021/04/19 03:05:17;;;;;;;;;;;;;;;;;;5094432;28;20324;-76
2021/04/19 03:08:01;;;;;;;;;;;;;;;;;;5092951;28;19907;-76
2021/04/19 03:10:29;;;;;;;;;;;;;;;;;;5092786;28;19920;-76
2021/04/19 03:12:56;;;;;;;;;;;;;;;;;;5075844;28;19915;-76
2021/04/19 03:15:29;;;;;;;;;;;;;;;;;;5092990;28;19918;-76
2021/04/19 03:18:09;;;;;;;;;;;;;;;;;;5094153;28;19912;-76
2021/04/19 03:21:02;;;;;;;;;;;;;;;;;;5092637;28;19916;-76
2021/04/19 03:23:29;;;;;;;;;;;;;;;;;;5092793;28;20010;-76
2021/04/19 03:25:58;;;;;;;;;;;;;;;;;;5094193;28;19973;-76
2021/04/19 03:28:25;;;;;;;;;;;;;;;;;;5092663;28;20018;-76
2021/04/19 03:30:57;;;;;;;;;;;;;;;;;;5092250;28;19922;-76
2021/04/19 03:33:29;;;;;;;;;;;;;;;;;;5092401;28;19911;-76
2021/04/19 03:35:55;;;;;;;;;;;;;;;;;;5075747;28;20003;-76
2021/04/19 03:38:21;;;;;;;;;;;;;;;;;;5092956;28;20339;-76
2021/04/19 03:40:49;;;;;;;;;;;;;;;;;;5091299;28;19919;-76
2021/04/19 03:43:19;;;;;;;;;;;;;;;;;;5092478;28;19981;-76
2021/04/19 03:45:55;;;;;;;;;;;;;;;;;;5092210;28;19918;-76
2021/04/19 03:48:40;;;;;;;;;;;;;;;;;;5092152;28;19912;-76
2021/04/19 03:51:15;;;;;;;;;;;;;;;;;;5092606;28;20056;-76
2021/04/19 03:53:46;;;;;;;;;;;;;;;;;;5093815;28;19919;-76
2021/04/19 03:56:15;;;;;;;;;;;;;;;;;;5093458;28;19919;-76
2021/04/19 03:58:47;;;;;;;;;;;;;;;;;;5092493;28;19911;-76
2021/04/19 04:01:15;;;;;;;;;;;;;;;;;;5093349;28;20372;-76
2021/04/19 04:03:45;;;;;;;;;;;;;;;;;;5093660;28;19919;-76
2021/04/19 04:06:17;;;;;;;;;;;;;;;;;;5092381;28;20387;-76
2021/04/19 04:08:43;;;;;;;;;;;;;;;;;;5092161;28;19958;-76
2021/04/19 04:11:09;;;;;;;;;;;;;;;;;;5093465;28;19916;-76
2021/04/19 04:13:36;;;;;;;;;;;;;;;;;;5093376;28;20285;-76
2021/04/19 04:16:01;;;;;;;;;;;;;;;;;;5091410;28;19919;-76
2021/04/19 04:18:38;;;;;;;;;;;;;;;;;;5092198;28;20006;-76
2021/04/19 04:21:07;;;;;;;;;;;;;;;;;;5092009;28;19959;-76
2021/04/19 04:23:33;;;;;;;;;;;;;;;;;;5091993;28;19944;-76
2021/04/19 04:25:59;;;;;;;;;;;;;;;;;;5092045;28;20003;-76
2021/04/19 04:28:29;;;;;;;;;;;;;;;;;;5091794;28;19950;-76
2021/04/19 04:31:00;;;;;;;;;;;;;;;;;;5091682;28;19999;-76
2021/04/19 04:33:31;;;;;;;;;;;;;;;;;;5091237;28;19919;-76
2021/04/19 04:36:03;;;;;;;;;;;;;;;;;;5091976;28;20261;-76
2021/04/19 04:38:32;;;;;;;;;;;;;;;;;;5093335;28;19950;-76
2021/04/19 04:40:59;;;;;;;;;;;;;;;;;;5092957;28;19916;-76
2021/04/19 04:43:26;;;;;;;;;;;;;;;;;;5091993;28;20350;-78
2021/04/19 04:45:58;;;;;;;;;;;;;;;;;;5094241;28;20006;-77
2021/04/19 04:48:46;;;;;;;;;;;;;;;;;;5091628;28;19965;-77
2021/04/19 04:51:13;;;;;;;;;;;;;;;;;;5093810;28;19919;-77
2021/04/19 04:53:44;;;;;;;;;;;;;;;;;;5096797;28;19915;-77
2021/04/19 04:56:11;;;;;;;;;;;;;;;;;;5097418;28;19911;-79
2021/04/19 04:58:39;;;;;;;;;;;;;;;;;;5079337;28;19957;-75
2021/04/19 05:01:06;;;;;;;;;;;;;;;;;;5096689;28;20329;-77
2021/04/19 05:03:32;;;;;;;;;;;;;;;;;;5096873;28;19957;-77
2021/04/19 05:05:57;;;;;;;;;;;;;;;;;;5096017;28;20350;-76
2021/04/19 05:08:25;;;;;;;;;;;;;;;;;;5096025;28;20377;-76
2021/04/19 05:10:50;;;;;;;;;;;;;;;;;;5096701;28;20274;-76
2021/04/19 05:13:17;;;;;;;;;;;;;;;;;;5097352;28;19927;-78
2021/04/19 05:15:42;;;;;;;;;;;;;;;;;;5097265;28;19918;-77
2021/04/19 05:18:12;;;;;;;;;;;;;;;;;;5096288;28;19998;-78
2021/04/19 05:20:37;;;;;;;;;;;;;;;;;;5096523;28;20350;-77
2021/04/19 05:23:02;;;;;;;;;;;;;;;;;;5094948;28;19912;-77
2021/04/19 05:25:28;;;;;;;;;;;;;;;;;;5096214;28;19912;-77
2021/04/19 05:27:53;;;;;;;;;;;;;;;;;;5095886;28;19953;-77
2021/04/19 05:30:19;;;;;;;;;;;;;;;;;;5095918;28;20370;-77
2021/04/19 05:32:44;;;;;;;;;;;;;;;;;;5095992;28;19916;-77
2021/04/19 05:35:10;;;;;;;;;;;;;;;;;;5095424;28;19912;-77
2021/04/19 05:37:36;;;;;;;;;;;;;;;;;;5097198;28;19919;-78
2021/04/19 05:40:02;;;;;;;;;;;;;;;;;;5106021;28;20010;-79
2021/04/19 05:42:27;;;;;;;;;;;;;;;;;;5108896;28;20378;-80
2021/04/19 05:44:52;;;;;;;;;;;;;;;;;;5104163;28;19912;-80
2021/04/19 05:47:19;;;;;;;;;;;;;;;;;;5099459;28;19912;-78
2021/04/19 05:49:44;;;;;;;;;;;;;;;;;;5104387;28;20353;-79
2021/04/19 05:52:10;;;;;;;;;;;;;;;;;;5106510;28;19934;-81
2021/04/19 05:54:35;;;;;;;;;;;;;;;;;;5106636;28;19912;-80
2021/04/19 05:57:01;;;;;;;;;;;;;;;;;;5101607;28;19931;-77
2021/04/19 05:59:41;;;;;;;;;;;;;;;;;;5081009;28;19920;-78
2021/04/19 06:02:08;;;;;;;;;;;;;;;;;;5081369;28;19919;-81
2021/04/19 06:04:33;;;;;;;;;;;;;;;;;;5085901;28;19912;-80
2021/04/19 06:07:02;;;;;;;;;;;;;;;;;;5079927;28;19912;-79
2021/04/19 06:10:00;;;;;;;;;;;;;;;;;;5081150;28;19913;-78
2021/04/19 06:13:06;;;;;;;;;;;;;;;;;;5079826;28;19912;-78
2021/04/19 06:15:32;;;;;;;;;;;;;;;;;;5076404;28;19951;-77
2021/04/19 06:17:58;;;;;;;;;;;;;;;;;;5075133;28;19952;-77
2021/04/19 06:20:23;;;;;;;;;;;;;;;;;;5082339;28;19920;-79
2021/04/19 06:22:50;;;;;;;;;;;;;;;;;;5085559;28;19912;-78
2021/04/19 06:25:15;;;;;;;;;;;;;;;;;;5077623;28;20010;-78
2021/04/19 06:27:41;;;;;;;;;;;;;;;;;;5077659;28;20411;-81
2021/04/19 06:30:26;;;;;;;;;;;;;;;;;;5078787;28;19965;-78
2021/04/19 06:32:51;;;;;;;;;;;;;;;;;;5077029;28;19966;-77
2021/04/19 06:35:17;;;;;;;;;;;;;;;;;;5077829;28;19917;-78
2021/04/19 06:37:47;;;;;;;;;;;;;;;;;;5077297;28;19919;-78
2021/04/19 06:40:13;;;;;;;;;;;;;;;;;;5090965;28;20373;-77
2021/04/19 06:42:38;;;;;;;;;;;;;;;;;;5081020;28;19912;-76
2021/04/19 06:45:05;;;;;;;;;;;;;;;;;;5083118;28;19912;-78
2021/04/19 06:47:34;;;;;;;;;;;;;;;;;;5086507;28;19974;-78
2021/04/19 06:50:01;;;;;;;;;;;;;;;;;;5083193;28;19912;-76
2021/04/19 06:52:26;;;;;;;;;;;;;;;;;;5083459;28;19912;-78
2021/04/19 06:54:53;;;;;;;;;;;;;;;;;;5084506;28;19943;-78
2021/04/19 06:57:19;;;;;;;;;;;;;;;;;;5075532;28;20006;-78
2021/04/19 06:59:45;;;;;;;;;;;;;;;;;;5077529;28;19917;-78
2021/04/19 07:02:15;;;;;;;;;;;;;;;;;;5093739;28;20383;-77
2021/04/19 07:04:41;;;;;;;;;;;;;;;;;;5120374;28;19912;-78
2021/04/19 07:07:07;;;;;;;;;;;;;;;;;;5107053;28;19926;-78
2021/04/19 07:09:35;;;;;;;;;;;;;;;;;;5100592;28;19916;-78
2021/04/19 07:12:03;;;;;;;;;;;;;;;;;;5098046;28;19957;-78
2021/04/19 07:14:29;;;;;;;;;;;;;;;;;;5098667;28;20354;-78
2021/04/19 07:16:55;;;;;;;;;;;;;;;;;;5097904;28;19965;-79
2021/04/19 07:19:21;;;;;;;;;;;;;;;;;;5096146;28;19912;-78
2021/04/19 07:21:46;;;;;;;;;;;;;;;;;;5097671;28;19965;-78
2021/04/19 07:24:12;;;;;;;;;;;;;;;;;;5099331;28;20354;-78
2021/04/19 07:26:38;;;;;;;;;;;;;;;;;;5097328;28;19935;-80
2021/04/19 07:29:03;;;;;;;;;;;;;;;;;;5098576;28;19955;-79
2021/04/19 07:31:44;;;;;;;;;;;;;;;;;;5098661;28;19916;-77
2021/04/19 07:34:17;;;;;;;;;;;;;;;;;;5094939;28;19912;-76
2021/04/19 07:36:47;;;;;;;;;;;;;;;;;;5095431;28;20373;-80
2021/04/19 07:39:16;;;;;;;;;;;;;;;;;;5095332;28;20278;-77
2021/04/19 07:41:45;;;;;;;;;;;;;;;;;;5112839;28;20463;-78
2021/04/19 07:44:11;;;;;;;;;;;;;;;;;;5098622;28;19970;-78
2021/04/19 07:46:36;;;;;;;;;;;;;;;;;;5116859;28;20360;-79
2021/04/19 07:49:06;;;;;;;;;;;;;;;;;;5116165;28;19912;-78
2021/04/19 07:51:33;;;;;;;;;;;;;;;;;;5119061;28;20258;-78
2021/04/19 07:54:10;;;;;;;;;;;;;;;;;;5121427;28;19916;-76
2021/04/19 07:56:35;;;;;;;;;;;;;;;;;;5113891;28;19911;-76
2021/04/19 07:59:19;;;;;;;;;;;;;;;;;;5113934;28;19912;-76
2021/04/19 08:01:59;;;;;;;;;;;;;;;;;;5109970;28;19923;-78
2021/04/19 08:04:25;;;;;;;;;;;;;;;;;;5117199;28;19927;-78
2021/04/19 08:06:50;;;;;;;;;;;;;;;;;;5111589;28;19912;-79
2021/04/19 08:09:15;;;;;;;;;;;;;;;;;;5110810;28;19912;-79
2021/04/19 08:11:41;;;;;;;;;;;;;;;;;;5111810;28;19964;-78
2021/04/19 08:14:07;;;;;;;;;;;;;;;;;;5111086;28;19920;-79
2021/04/19 08:16:32;;;;;;;;;;;;;;;;;;5110305;28;20002;-79
2021/04/19 08:19:04;;;;;;;;;;;;;;;;;;5110984;28;19939;-79
2021/04/19 08:21:33;;;;;;;;;;;;;;;;;;5110144;28;19923;-78
2021/04/19 08:24:11;;;;;;;;;;;;;;;;;;5110083;28;19912;-79
2021/04/19 08:27:09;;;;;;;;;;;;;;;;;;5113737;28;19971;-78
2021/04/19 08:29:38;;;;;;;;;;;;;;;;;;5101210;28;19916;-78
2021/04/19 08:32:06;;;;;;;;;;;;;;;;;;5113564;28;19916;-78
2021/04/19 08:34:32;;;;;;;;;;;;;;;;;;5112984;28;19911;-79
2021/04/19 08:36:59;;;;;;;;;;;;;;;;;;5112838;28;20503;-79
2021/04/19 08:39:24;;;;;;;;;;;;;;;;;;5112534;28;19918;-78
2021/04/19 08:41:50;;;;;;;;;;;;;;;;;;5110275;28;20378;-78
2021/04/19 08:44:16;;;;;;;;;;;;;;;;;;5111548;28;19919;-79
2021/04/19 08:46:41;;;;;;;;;;;;;;;;;;5110926;28;19983;-79
2021/04/19 08:49:06;;;;;;;;;;;;;;;;;;5110521;28;19916;-79
2021/04/19 08:51:32;;;;;;;;;;;;;;;;;;5108943;28;20297;-76
2021/04/19 08:53:58;;;;;;;;;;;;;;;;;;5095522;28;19912;-77
2021/04/19 08:56:23;;;;;;;;;;;;;;;;;;5096797;28;19907;-76
2021/04/19 08:58:48;;;;;;;;;;;;;;;;;;5096509;28;19919;-76
2021/04/19 09:01:15;;;;;;;;;;;;;;;;;;5096780;28;19916;-76
2021/04/19 09:03:40;;;;;;;;;;;;;;;;;;5094913;28;19911;-77
2021/04/19 09:06:15;;;;;;;;;;;;;;;;;;5096659;28;20407;-77
2021/04/19 09:08:41;;;;;;;;;;;;;;;;;;5096549;28;19924;-77
2021/04/19 09:11:06;;;;;;;;;;;;;;;;;;5095595;28;19950;-77
2021/04/19 09:13:44;;;;;;;;;;;;;;;;;;5096581;28;19912;-77
2021/04/19 09:16:20;;;;;;;;;;;;;;;;;;5094988;28;20019;-77
2021/04/19 09:18:54;;;;;;;;;;;;;;;;;;5095288;28;19961;-77
2021/04/19 09:21:38;;;;;;;;;;;;;;;;;;5096435;28;19923;-77
2021/04/19 09:24:04;;;;;;;;;;;;;;;;;;5096388;28;19912;-77
2021/04/19 09:26:43;;;;;;;;;;;;;;;;;;5095929;28;19997;-76
2021/04/19 09:29:09;;;;;;;;;;;;;;;;;;5096113;28;19916;-77
2021/04/19 09:31:53;;;;;;;;;;;;;;;;;;5095939;28;19916;-76
2021/04/19 09:34:18;;;;;;;;;;;;;;;;;;5096269;28;19938;-76
2021/04/19 09:36:50;;;;;;;;;;;;;;;;;;5095074;28;20327;-76
2021/04/19 09:39:34;;;;;;;;;;;;;;;;;;5096008;28;19973;-76
2021/04/19 09:41:59;;;;;;;;;;;;;;;;;;5094772;28;19919;-76
2021/04/19 09:44:26;;;;;;;;;;;;;;;;;;5096150;28;19912;-76
2021/04/19 09:46:51;;;;;;;;;;;;;;;;;;5095889;28;19958;-76
2021/04/19 09:49:20;;;;;;;;;;;;;;;;;;5100549;28;19916;-78
2021/04/19 09:51:45;;;;;;;;;;;;;;;;;;5110506;28;19919;-79
2021/04/19 09:54:14;;;;;;;;;;;;;;;;;;5109332;28;19912;-79
2021/04/19 09:56:43;;;;;;;;;;;;;;;;;;5108297;28;19912;-76
2021/04/19 09:59:10;;;;;;;;;;;;;;;;;;5094421;28;19911;-76
2021/04/19 10:01:36;;;;;;;;;;;;;;;;;;5094447;28;19943;-76
2021/04/19 10:04:02;;;;;;;;;;;;;;;;;;5077565;28;19934;-76
2021/04/19 10:06:29;;;;;;;;;;;;;;;;;;5095432;28;20409;-76
2021/04/19 10:08:56;;;;;;;;;;;;;;;;;;5094444;28;19920;-76
2021/04/19 10:11:22;;;;;;;;;;;;;;;;;;5095344;28;20021;-76
2021/04/19 10:13:48;;;;;;;;;;;;;;;;;;5104683;28;19908;-78
2021/04/19 10:16:14;;;;;;;;;;;;;;;;;;5107902;28;20039;-78
2021/04/19 10:18:40;;;;;;;;;;;;;;;;;;5110036;28;19943;-79
2021/04/19 10:21:07;;;;;;;;;;;;;;;;;;5108385;28;19975;-78
2021/04/19 10:23:34;;;;;;;;;;;;;;;;;;5110129;28;19912;-78
2021/04/19 10:26:00;;;;;;;;;;;;;;;;;;5108772;28;19933;-78
2021/04/19 10:28:33;;;;;;;;;;;;;;;;;;5108764;28;19911;-78
2021/04/19 10:31:05;;;;;;;;;;;;;;;;;;5108607;28;19912;-78
2021/04/19 10:33:31;;;;;;;;;;;;;;;;;;5108879;28;19954;-78
2021/04/19 10:35:57;;;;;;;;;;;;;;;;;;5109497;28;19912;-78
2021/04/19 10:38:26;;;;;;;;;;;;;;;;;;5106787;28;19943;-78
2021/04/19 10:40:58;;;;;;;;;;;;;;;;;;5104818;28;19915;-78
2021/04/19 10:43:24;;;;;;;;;;;;;;;;;;5108410;28;19975;-78
2021/04/19 10:45:50;;;;;;;;;;;;;;;;;;5107972;28;20002;-78
2021/04/19 10:48:15;;;;;;;;;;;;;;;;;;5107103;28;19912;-78
2021/04/19 10:50:40;;;;;;;;;;;;;;;;;;5106026;28;19951;-78
2021/04/19 10:53:06;;;;;;;;;;;;;;;;;;5106236;28;19994;-78
2021/04/19 10:55:31;;;;;;;;;;;;;;;;;;5106947;28;19912;-78
2021/04/19 10:57:56;;;;;;;;;;;;;;;;;;5107396;28;19916;-78
2021/04/19 11:00:22;;;;;;;;;;;;;;;;;;5108322;28;19916;-78
2021/04/19 11:02:52;;;;;;;;;;;;;;;;;;5106399;28;19922;-78
2021/04/19 11:05:17;;;;;;;;;;;;;;;;;;5106428;28;19916;-78
2021/04/19 11:07:43;;;;;;;;;;;;;;;;;;5101866;28;19918;-78
2021/04/19 11:10:09;;;;;;;;;;;;;;;;;;5098376;28;19915;-76
2021/04/19 11:12:34;;;;;;;;;;;;;;;;;;5096197;28;19969;-80
2021/04/19 11:15:12;;;;;;;;;;;;;;;;;;5096288;28;20005;-77
2021/04/19 11:17:37;;;;;;;;;;;;;;;;;;5096886;28;20632;-78
2021/04/19 11:20:38;;;;;;;;;;;;;;;;;;5096415;28;19912;-77
2021/04/19 11:23:03;;;;;;;;;;;;;;;;;;5059806;28;19912;-76
2021/04/19 11:25:29;;;;;;;;;;;;;;;;;;5091909;28;19957;-77
2021/04/19 11:28:14;;;;;;;;;;;;;;;;;;5089456;28;19939;-77
2021/04/19 11:30:40;;;;;;;;;;;;;;;;;;5076835;28;19995;-78
2021/04/19 11:33:09;;;;;;;;;;;;;;;;;;5083711;28;19940;-78
2021/04/19 11:35:40;;;;;;;;;;;;;;;;;;5086360;28;20010;-79
2021/04/19 11:38:07;;;;;;;;;;;;;;;;;;5082313;28;19912;-78
2021/04/19 11:40:34;;;;;;;;;;;;;;;;;;5085308;28;20370;-79
2021/04/19 11:43:14;;;;;;;;;;;;;;;;;;5092397;28;19919;-79
2021/04/19 11:45:40;;;;;;;;;;;;;;;;;;5102961;28;19938;-80
2021/04/19 11:48:05;;;;;;;;;;;;;;;;;;5104302;28;19908;-78
2021/04/19 11:50:31;;;;;;;;;;;;;;;;;;5109276;28;19912;-79
2021/04/19 11:52:56;;;;;;;;;;;;;;;;;;5098289;28;19951;-77
2021/04/19 11:55:21;;;;;;;;;;;;;;;;;;5097000;28;19966;-78
2021/04/19 11:57:47;;;;;;;;;;;;;;;;;;5096370;28;19912;-77
2021/04/19 12:00:13;;;;;;;;;;;;;;;;;;5100392;28;19923;-78
2021/04/19 12:02:39;;;;;;;;;;;;;;;;;;5102536;28;20374;-78
2021/04/19 12:05:05;;;;;;;;;;;;;;;;;;5102018;28;19957;-77
2021/04/19 12:07:30;;;;;;;;;;;;;;;;;;5092290;28;19912;-77
2021/04/19 12:09:56;;;;;;;;;;;;;;;;;;5080188;28;19966;-77
2021/04/19 12:12:21;;;;;;;;;;;;;;;;;;5080100;28;20267;-78
2021/04/19 12:14:46;;;;;;;;;;;;;;;;;;5079173;28;19916;-77
2021/04/19 12:17:12;;;;;;;;;;;;;;;;;;5094268;28;20322;-78
2021/04/19 12:19:37;;;;;;;;;;;;;;;;;;5120750;27;19919;-77
2021/04/19 12:22:03;;;;;;;;;;;;;;;;;;5120864;28;19939;-77
2021/04/19 12:24:29;;;;;;;;;;;;;;;;;;5121081;28;20391;-77
2021/04/19 12:26:54;;;;;;;;;;;;;;;;;;5120494;28;19915;-77
2021/04/19 12:29:20;;;;;;;;;;;;;;;;;;5120845;28;19912;-77
2021/04/19 12:31:45;;;;;;;;;;;;;;;;;;5120617;28;20289;-77
2021/04/19 12:34:10;;;;;;;;;;;;;;;;;;5120625;28;19912;-78
2021/04/19 12:36:35;;;;;;;;;;;;;;;;;;5120758;28;19918;-77
2021/04/19 12:39:02;;;;;;;;;;;;;;;;;;5120751;28;19908;-77
2021/04/19 12:41:28;;;;;;;;;;;;;;;;;;5119229;28;19919;-78
2021/04/19 12:43:53;;;;;;;;;;;;;;;;;;5100166;28;20348;-75
2021/04/19 12:46:18;;;;;;;;;;;;;;;;;;5100087;28;20296;-77
2021/04/19 12:48:44;;;;;;;;;;;;;;;;;;5099956;28;19912;-77
2021/04/19 12:51:09;;;;;;;;;;;;;;;;;;5100185;28;19919;-77
2021/04/19 12:53:35;;;;;;;;;;;;;;;;;;5100250;28;20332;-77
2021/04/19 12:56:15;;;;;;;;;;;;;;;;;;5100348;28;19916;-78
2021/04/19 12:58:42;;;;;;;;;;;;;;;;;;5092604;28;19912;-76
2021/04/19 13:01:08;;;;;;;;;;;;;;;;;;5091031;28;20128;-77
2021/04/19 13:03:34;;;;;;;;;;;;;;;;;;5100154;28;19998;-77
2021/04/19 13:06:00;;;;;;;;;;;;;;;;;;5089488;28;19919;-76
2021/04/19 13:08:25;;;;;;;;;;;;;;;;;;5088468;28;20297;-77
2021/04/19 13:10:53;;;;;;;;;;;;;;;;;;5071445;28;19920;-76
2021/04/19 13:13:19;;;;;;;;;;;;;;;;;;5086656;28;19912;-79
2021/04/19 13:15:44;;;;;;;;;;;;;;;;;;5082110;28;19916;-78
2021/04/19 13:18:10;;;;;;;;;;;;;;;;;;5077988;28;19912;-80
2021/04/19 13:20:37;;;;;;;;;;;;;;;;;;5079010;28;19916;-77
2021/04/19 13:23:03;;;;;;;;;;;;;;;;;;5077220;28;19912;-78
2021/04/19 13:25:28;;;;;;;;;;;;;;;;;;5076761;28;19919;-77
2021/04/19 13:27:54;;;;;;;;;;;;;;;;;;5075896;28;20333;-77
2021/04/19 13:30:19;;;;;;;;;;;;;;;;;;5076753;28;19919;-77
2021/04/19 13:32:45;;;;;;;;;;;;;;;;;;5076821;28;19917;-77
2021/04/19 13:35:11;;;;;;;;;;;;;;;;;;5076741;28;20435;-75
2021/04/19 13:37:37;;;;;;;;;;;;;;;;;;5076013;28;19912;-76
2021/04/19 13:40:03;;;;;;;;;;;;;;;;;;5079272;28;19912;-75
2021/04/19 13:42:28;;;;;;;;;;;;;;;;;;5096107;28;20007;-76
2021/04/19 13:44:54;;;;;;;;;;;;;;;;;;5095049;28;19990;-76
2021/04/19 13:47:19;;;;;;;;;;;;;;;;;;5093929;28;19934;-75
2021/04/19 13:49:44;;;;;;;;;;;;;;;;;;5095802;28;19919;-75
2021/04/19 13:52:10;;;;;;;;;;;;;;;;;;5094527;28;19912;-75
2021/04/19 13:54:35;;;;;;;;;;;;;;;;;;5094714;28;19915;-75
2021/04/19 13:57:00;;;;;;;;;;;;;;;;;;5093369;28;20002;-75
2021/04/19 13:59:26;;;;;;;;;;;;;;;;;;5094905;28;19912;-76
2021/04/19 14:01:51;;;;;;;;;;;;;;;;;;5095529;28;19916;-77
2021/04/19 14:04:17;;;;;;;;;;;;;;;;;;5095583;28;19922;-77
2021/04/19 14:06:42;;;;;;;;;;;;;;;;;;5095623;28;19935;-77
2021/04/19 14:09:08;;;;;;;;;;;;;;;;;;5093339;28;19912;-77
2021/04/19 14:11:33;;;;;;;;;;;;;;;;;;5094913;28;20011;-76
2021/04/19 14:13:58;;;;;;;;;;;;;;;;;;5093157;28;19912;-76
2021/04/19 14:16:24;;;;;;;;;;;;;;;;;;5095507;28;19957;-76
2021/04/19 14:18:49;;;;;;;;;;;;;;;;;;5094076;28;19934;-76
2021/04/19 14:21:14;;;;;;;;;;;;;;;;;;5094884;28;19920;-76
2021/04/19 14:23:40;;;;;;;;;;;;;;;;;;5095557;28;20353;-76
2021/04/19 14:26:08;;;;;;;;;;;;;;;;;;5095044;28;20010;-76
2021/04/19 14:28:35;;;;;;;;;;;;;;;;;;5095216;28;19916;-76
2021/04/19 14:31:01;;;;;;;;;;;;;;;;;;5094971;28;19965;-76
2021/04/19 14:33:26;;;;;;;;;;;;;;;;;;5094813;28;20332;-76
2021/04/19 14:35:51;;;;;;;;;;;;;;;;;;5093963;28;19912;-77
2021/04/19 14:38:18;;;;;;;;;;;;;;;;;;5095245;28;20281;-77
2021/04/19 14:40:43;;;;;;;;;;;;;;;;;;5092403;28;19923;-77
2021/04/19 14:43:08;;;;;;;;;;;;;;;;;;5093814;28;20282;-77
2021/04/19 14:45:34;;;;;;;;;;;;;;;;;;5094888;28;19923;-77
2021/04/19 14:47:59;;;;;;;;;;;;;;;;;;5093619;28;20358;-77
2021/04/19 14:50:24;;;;;;;;;;;;;;;;;;5094983;28;19919;-78
2021/04/19 14:52:50;;;;;;;;;;;;;;;;;;5094212;28;19969;-77
2021/04/19 14:55:15;;;;;;;;;;;;;;;;;;5092088;28;19908;-77
2021/04/19 14:57:40;;;;;;;;;;;;;;;;;;5091924;28;20358;-77
2021/04/19 15:00:07;;;;;;;;;;;;;;;;;;5088391;28;19919;-77
2021/04/19 15:02:32;;;;;;;;;;;;;;;;;;5094051;28;19912;-76
2021/04/19 15:04:57;;;;;;;;;;;;;;;;;;5097036;28;19922;-78
2021/04/19 15:07:23;;;;;;;;;;;;;;;;;;5098590;28;19912;-78
2021/04/19 15:09:48;;;;;;;;;;;;;;;;;;5095978;28;19912;-76
2021/04/19 15:12:13;;;;;;;;;;;;;;;;;;5097776;28;19955;-78
2021/04/19 15:14:39;;;;;;;;;;;;;;;;;;5095408;28;19919;-76
2021/04/19 15:17:04;;;;;;;;;;;;;;;;;;5094730;28;20444;-76
2021/04/19 15:19:30;;;;;;;;;;;;;;;;;;5094430;28;19912;-77
2021/04/19 15:21:55;;;;;;;;;;;;;;;;;;5094590;28;20354;-74
2021/04/19 15:24:20;;;;;;;;;;;;;;;;;;5092555;28;19907;-76
2021/04/19 15:26:46;;;;;;;;;;;;;;;;;;5094227;28;19912;-76
2021/04/19 15:29:11;;;;;;;;;;;;;;;;;;5093956;28;19916;-76
2021/04/19 15:31:38;;;;;;;;;;;;;;;;;;5093953;28;19939;-76
2021/04/19 15:34:07;;;;;;;;;;;;;;;;;;5094191;28;19919;-77
2021/04/19 15:36:32;;;;;;;;;;;;;;;;;;5094207;28;20289;-80
2021/04/19 15:38:58;;;;;;;;;;;;;;;;;;5098645;28;19912;-76
2021/04/19 15:41:23;;;;;;;;;;;;;;;;;;5092992;28;19916;-72
2021/04/19 15:43:48;;;;;;;;;;;;;;;;;;5092782;28;20337;-72
2021/04/19 15:46:14;;;;;;;;;;;;;;;;;;5093882;28;19965;-71
2021/04/19 15:48:40;;;;;;;;;;;;;;;;;;5093553;28;20003;-71
2021/04/19 15:51:05;;;;;;;;;;;;;;;;;;5092379;28;19916;-75
2021/04/19 15:53:30;;;;;;;;;;;;;;;;;;5092522;28;19912;-75
2021/04/19 15:55:56;;;;;;;;;;;;;;;;;;5084181;28;19912;-75
2021/04/19 15:58:21;;;;;;;;;;;;;;;;;;5081107;28;19951;-76
2021/04/19 16:00:47;;;;;;;;;;;;;;;;;;5084935;28;20116;-76
2021/04/19 16:03:12;;;;;;;;;;;;;;;;;;5082493;28;19999;-77
2021/04/19 16:05:38;;;;;;;;;;;;;;;;;;5064500;28;20010;-77
2021/04/19 16:08:03;;;;;;;;;;;;;;;;;;5087658;28;19966;-76
2021/04/19 16:10:29;;;;;;;;;;;;;;;;;;5080513;28;19912;-76
2021/04/19 16:12:54;;;;;;;;;;;;;;;;;;5082979;28;19920;-74
2021/04/19 16:15:19;;;;;;;;;;;;;;;;;;5078399;28;19913;-73
2021/04/19 16:17:49;;;;;;;;;;;;;;;;;;5098631;28;19912;-78
2021/04/19 16:20:14;;;;;;;;;;;;;;;;;;5113995;28;19915;-76
2021/04/19 16:22:39;;;;;;;;;;;;;;;;;;5096874;28;19919;-79
2021/04/19 16:25:05;;;;;;;;;;;;;;;;;;5115118;28;19911;-76
2021/04/19 16:27:30;;;;;;;;;;;;;;;;;;5114058;28;19919;-75
2021/04/19 16:29:56;;;;;;;;;;;;;;;;;;5114351;28;20002;-76
2021/04/19 16:32:22;;;;;;;;;;;;;;;;;;5113548;28;19946;-77
2021/04/19 16:34:47;;;;;;;;;;;;;;;;;;5114021;28;20383;-75
2021/04/19 16:37:12;;;;;;;;;;;;;;;;;;5113619;28;19912;-73
2021/04/19 16:39:38;;;;;;;;;;;;;;;;;;5106440;28;19913;-83
2021/04/19 16:42:04;;;;;;;;;;;;;;;;;;5074705;28;19915;-80
2021/04/19 16:44:29;;;;;;;;;;;;;;;;;;5075483;28;19961;-77
2021/04/19 16:46:54;;;;;;;;;;;;;;;;;;5080200;28;19912;-78
2021/04/19 16:49:20;;;;;;;;;;;;;;;;;;5082558;28;19920;-78